Latest Weather Observations for Parawa West

IDS60901

Issued at 1:11 pm CDT Thursday 23 January 2020 (issued every 10 minutes, with the page automatically refreshed every 10 minutes)

About weather observations | Map of Adelaide area stations | Latest observations for Adelaide area | Other Formats
Station Details ID: 023875 Name: SECOND VALLEY FOREST AWS Lat: -35.57 Lon: 138.29 Height: 341.0 m
Data from the previous 72 hours. | See also: Recent months at Parawa West
Date/Time
CDT
Temp
°C
App
Temp
°C
Dew
Point
°C
Rel
Hum
%
Delta-T
°C
Wind Press
QNH
hPa
Press
MSL
hPa
Rain since
9am
mm
Dir  Spd
km/h
Gust
km/h
Spd
kts
Gust
kts
23/01:00pm 15.9 9.6 7.4 57 4.3 W 30 44 16 24 1004.3 1003.2 0.0
23/12:42pm 16.0 9.6 5.3 49 5.2 WSW 28 48 15 26 1003.9 1002.8 0.0
23/12:30pm 15.6 9.1 6.6 55 4.5 WSW 30 44 16 24 1003.8 1002.7 0.0
23/12:00pm 14.7 7.6 6.3 57 4.1 W 33 56 18 30 1003.2 1002.0 0.0
23/11:52am 15.5 9.2 7.3 58 4.1 W 30 56 16 30 1003.0 1001.8 0.0
23/11:30am 14.5 9.2 8.5 67 3.1 W 26 35 14 19 1002.7 1001.5 0.0
23/11:00am 13.8 7.8 8.8 72 2.6 W 30 48 16 26 1002.5 1001.3 0.0
23/10:30am 13.6 7.8 8.0 69 2.8 W 28 46 15 25 1002.1 1000.9 0.0
23/10:02am 13.3 7.0 7.5 68 2.9 W 30 50 16 27 1001.5 1000.4 0.0
23/10:00am 13.6 7.9 8.2 70 2.7 W 28 43 15 23 1001.4 1000.3 0.0
23/09:30am 13.4 7.5 7.6 68 2.9 W 28 48 15 26 1000.7 999.5 0.0
23/09:00am 13.3 7.6 8.4 72 2.5 W 28 48 15 26 1000.5 999.3 10.0
23/08:30am 12.8 6.3 8.3 74 2.3 W 32 56 17 30 999.9 998.7 10.0
23/08:04am 12.6 6.8 9.4 81 1.7 W 30 50 16 27 999.5 998.3 10.0
23/08:00am 12.7 6.3 9.5 81 1.7 W 33 50 18 27 999.3 998.1 10.0
23/07:30am 12.1 6.7 9.5 84 1.3 W 28 46 15 25 998.8 997.6 10.0
23/07:24am 11.9 6.6 9.8 87 1.1 W 28 46 15 25 998.6 997.5 10.0
23/07:00am 11.2 6.8 10.3 94 0.5 WNW 24 41 13 22 998.2 997.0 10.0
23/06:30am 10.5 3.8 9.7 95 0.4 W 35 57 19 31 997.7 996.5 9.6
23/06:19am 11.4 4.2 10.6 95 0.4 WNW 39 65 21 35 997.3 996.1 7.8
23/06:08am 13.0 7.4 11.6 91 0.8 NW 32 50 17 27 996.7 995.5 4.0
23/06:00am 13.3 7.7 11.4 88 1.0 NW 32 48 17 26 996.6 995.4 3.2
23/05:30am 13.4 8.2 11.5 88 1.0 NW 30 50 16 27 996.4 995.2 3.2
23/05:00am 13.2 8.1 11.8 91 0.8 NW 30 54 16 29 996.6 995.4 3.2
23/04:33am 12.6 7.8 11.8 95 0.4 NW 28 52 15 28 996.5 995.3 3.2
23/04:30am 12.6 8.3 12.0 96 0.3 NW 26 52 14 28 996.6 995.4 3.2
23/04:28am 12.6 7.9 12.0 96 0.3 NW 28 52 15 28 996.7 995.5 3.2
23/04:00am 12.5 8.9 11.7 95 0.4 NNW 22 33 12 18 997.0 995.8 3.2
23/03:30am 12.5 9.3 11.9 96 0.3 NW 20 32 11 17 997.2 996.0 3.2
23/03:00am 12.7 9.4 11.6 93 0.6 NW 20 32 11 17 997.5 996.3 3.0
23/02:30am 12.5 8.8 10.2 86 1.2 NW 20 32 11 17 997.6 996.4 3.0
23/02:00am 12.4 8.9 10.1 86 1.2 NW 19 32 10 17 998.2 997.0 3.0
23/01:30am 12.0 9.5 10.9 93 0.6 NW 15 22 8 12 998.9 997.7 3.0
23/01:00am 12.0 9.6 11.5 97 0.3 NNW 15 24 8 13 999.5 998.3 3.0
23/12:30am 11.6 9.8 11.0 96 0.3 NW 11 17 6 9 999.7 998.5 2.8
23/12:00am 11.1 9.6 10.5 96 0.3 NW 9 19 5 10 999.9 998.7 2.6
 
Date/Time
CDT
Temp
°C
App
Temp
°C
Dew
Point
°C
Rel
Hum
%
Delta-T
°C
Wind Press
QNH
hPa
Press
MSL
hPa
Rain since
9am
mm
Dir  Spd
km/h
Gust
km/h
Spd
kts
Gust
kts
22/11:30pm 11.1 8.4 10.3 95 0.4 WNW 15 24 8 13 1000.3 999.1 2.4
22/11:17pm 11.4 5.5 10.5 94 0.5 W 32 52 17 28 1000.3 999.1 2.4
22/11:12pm 11.6 6.5 10.5 93 0.6 WNW 28 52 15 28 1000.2 999.0 2.4
22/11:09pm 12.0 8.1 10.9 93 0.6 NW 22 52 12 28 1000.2 999.0 2.0
22/11:00pm 12.3 9.5 11.5 95 0.4 NW 17 26 9 14 1000.2 999.0 0.6
22/10:30pm 11.8 9.0 11.2 96 0.3 WNW 17 26 9 14 1000.4 999.2 0.6
22/10:00pm 12.5 10.6 11.9 96 0.3 WNW 13 20 7 11 1000.3 999.1 0.4
22/09:30pm 12.0 9.2 11.2 95 0.4 WNW 17 24 9 13 1000.0 998.8 0.4
22/09:00pm 13.2 7.4 10.9 86 1.2 W 32 54 17 29 999.9 998.7 0.0
22/08:57pm 13.8 8.3 10.4 80 1.8 W 30 52 16 28 999.8 998.6 0.0
22/08:30pm 14.6 10.4 9.6 72 2.6 WNW 22 43 12 23 999.5 998.3 0.0
22/08:00pm 15.0 11.3 10.2 73 2.6 WNW 20 35 11 19 999.4 998.2 0.0
22/07:30pm 15.1 11.9 10.1 72 2.7 WNW 17 26 9 14 999.3 998.1 0.0
22/07:00pm 15.2 11.8 9.3 68 3.1 WNW 17 35 9 19 999.4 998.2 0.0
22/06:30pm 15.4 10.8 9.7 69 3.0 WNW 24 37 13 20 999.2 998.0 0.0
22/06:00pm 15.7 11.8 9.6 67 3.2 WNW 20 32 11 17 999.5 998.3 0.0
22/05:30pm 15.8 11.3 10.1 69 3.1 WNW 24 43 13 23 999.3 998.1 0.0
22/05:00pm 16.0 11.6 10.3 69 3.1 WNW 24 39 13 21 999.7 998.5 0.0
22/04:30pm 16.1 10.8 10.0 67 3.3 WNW 28 43 15 23 1000.0 998.8 0.0
22/04:09pm 16.4 10.7 9.8 65 3.5 WNW 30 54 16 29 999.9 998.7 0.0
22/04:00pm 16.4 10.8 10.3 67 3.3 WNW 30 46 16 25 1000.1 998.9 0.0
22/03:55pm 16.3 11.1 10.2 67 3.3 WNW 28 46 15 25 1000.1 998.9 0.0
22/03:30pm 16.9 11.8 11.8 72 2.8 WNW 30 43 16 23 1000.1 998.9 0.0
22/03:13pm 16.7 11.7 11.0 69 3.1 WNW 28 46 15 25 1000.2 999.0 0.0
22/03:00pm 16.8 11.5 11.3 70 3.0 WNW 30 41 16 22 1000.5 999.3 0.0
22/02:31pm 16.3 11.4 11.2 72 2.8 WNW 28 48 15 26 1000.7 999.5 0.0
22/02:30pm 16.4 12.0 11.6 73 2.7 WNW 26 39 14 21 1000.7 999.5 0.0
22/02:00pm 16.4 11.6 11.8 74 2.5 WNW 28 43 15 23 1000.9 999.7 0.0
22/01:30pm 17.2 13.4 12.3 73 2.8 WNW 24 35 13 19 1001.1 1000.0 0.0
22/01:00pm 16.7 12.4 12.0 74 2.6 WNW 26 39 14 21 1001.0 999.9 0.0
22/12:30pm 16.9 14.0 12.2 74 2.6 WNW 19 28 10 15 1001.0 999.9 0.0
22/12:00pm 17.1 14.1 11.8 71 3.0 WNW 19 26 10 14 1001.2 1000.1 0.0
22/11:30am 17.2 13.5 11.5 69 3.2 W 22 32 12 17 1000.9 999.7 0.0
22/11:00am 18.2 15.3 13.9 76 2.5 W 22 35 12 19 1000.3 999.1 0.0
22/10:30am 18.7 15.2 14.6 77 2.4 W 26 43 14 23 999.9 998.7 0.0
22/10:00am 18.4 15.7 15.5 83 1.7 NW 24 35 13 19 999.9 998.7 0.0
22/09:30am 18.2 14.3 14.5 79 2.2 WNW 28 44 15 24 999.9 998.7 0.0
22/09:00am 18.5 15.6 12.9 70 3.2 NW 20 32 11 17 999.8 998.6 0.0
22/08:30am 18.1 16.0 14.8 81 2.0 NW 19 33 10 18 1000.0 998.8 0.0
22/08:00am 18.3 15.8 14.0 76 2.5 WNW 20 35 11 19 1000.0 998.8 0.0
22/07:30am 18.7 16.8 14.2 75 2.6 NW 17 26 9 14 999.5 998.3 0.0
22/07:00am 19.3 18.5 15.0 76 2.6 NNW 13 22 7 12 999.0 997.8 0.0
22/06:30am 19.2 17.9 14.9 76 2.6 NNW 15 24 8 13 998.9 997.7 0.0
22/06:00am 19.2 18.5 15.5 79 2.2 NNW 13 20 7 11 999.1 997.9 0.0
22/05:30am 19.4 18.0 15.5 78 2.4 NNW 17 28 9 15 999.1 997.9 0.0
22/05:00am 19.6 18.5 14.2 71 3.2 NW 13 19 7 10 998.9 997.7 0.0
22/04:30am 19.4 18.6 12.9 66 3.7 NNW 9 13 5 7 999.0 997.8 0.0
22/04:00am 18.5 18.4 10.8 61 4.2 ENE 2 6 1 3 999.3 998.1 0.0
22/03:30am 19.1 18.3 9.6 54 5.1 NNW 4 11 2 6 1000.3 999.1 0.0
22/03:00am 19.0 17.6 8.9 52 5.4 N 6 9 3 5 1000.6 999.4 0.0
22/02:30am 19.0 18.1 9.2 53 5.3 NNW 4 7 2 4 1000.9 999.7 0.0
22/02:00am 18.3 18.3 9.9 58 4.5 CALM 0 0 0 0 1001.3 1000.2 0.0
22/01:30am 17.8 17.8 9.7 59 4.4 CALM 0 0 0 0 1001.5 1000.4 0.0
22/01:00am 18.2 18.2 9.8 58 4.5 CALM 0 0 0 0 1002.8 1001.6 0.0
22/12:30am 18.9 18.9 9.9 56 4.9 CALM 0 0 0 0 1003.7 1002.6 0.0
22/12:00am 18.9 19.0 10.2 57 4.8 CALM 0 4 0 2 1003.6 1002.5 0.0
 
Date/Time
CDT
Temp
°C
App
Temp
°C
Dew
Point
°C
Rel
Hum
%
Delta-T
°C
Wind Press
QNH
hPa
Press
MSL
hPa
Rain since
9am
mm
Dir  Spd
km/h
Gust
km/h
Spd
kts
Gust
kts
21/11:30pm 18.4 18.0 9.7 57 4.7 NNW 2 4 1 2 1004.0 1002.9 0.0
21/11:00pm 18.6 18.2 9.7 56 4.8 NNW 2 6 1 3 1004.1 1003.0 0.0
21/10:30pm 17.8 17.3 9.4 58 4.5 NNW 2 4 1 2 1004.3 1003.2 0.0
21/10:00pm 17.4 16.8 8.8 57 4.5 NNW 2 4 1 2 1005.0 1003.8 0.0
21/09:30pm 16.8 16.6 9.0 60 4.1 CALM 0 0 0 0 1004.8 1003.7 0.0
21/09:00pm 17.3 16.7 9.0 58 4.4 NNW 2 6 1 3 1005.1 1003.9 0.0
21/08:30pm 18.1 18.0 9.5 57 4.6 CALM 0 2 0 1 1005.3 1004.1 0.0
21/08:00pm 19.5 18.8 10.0 54 5.2 NNW 4 6 2 3 1005.4 1004.2 0.0
21/07:30pm 19.5 18.6 9.4 52 5.5 N 4 6 2 3 1005.3 1004.1 0.0
21/07:00pm 20.3 19.5 9.5 50 5.8 NW 4 9 2 5 1005.7 1004.5 0.0
21/06:30pm 21.0 20.3 10.2 50 6.0 N 4 13 2 7 1005.7 1004.5 0.0
21/06:00pm 20.4 19.0 9.6 50 5.9 NW 7 19 4 10 1006.1 1005.0 0.0
21/05:30pm 20.7 18.0 10.5 52 5.7 NNW 15 28 8 15 1006.5 1005.4 0.0
21/05:00pm 20.4 18.3 11.1 55 5.2 NNW 13 22 7 12 1007.1 1006.0 0.0
21/04:30pm 20.8 19.2 11.4 55 5.3 NNW 11 17 6 9 1007.5 1006.4 0.0
21/04:00pm 20.3 18.5 11.0 55 5.2 NNW 11 24 6 13 1008.1 1006.9 0.0
21/03:30pm 20.4 18.9 10.5 53 5.5 NNW 9 17 5 9 1008.5 1007.3 0.0
21/03:00pm 19.5 17.5 10.2 55 5.1 NNW 11 24 6 13 1008.8 1007.7 0.0
21/02:30pm 19.5 17.2 9.1 51 5.6 NW 11 20 6 11 1009.0 1007.9 0.0
21/02:00pm 19.1 16.8 10.6 58 4.7 NW 13 20 7 11 1010.0 1008.9 0.0
21/01:30pm 18.5 16.5 10.1 58 4.6 NW 11 20 6 11 1010.1 1009.0 0.0
21/01:00pm 18.6 16.8 10.9 61 4.2 NW 11 19 6 10 1010.5 1009.4 0.0
21/12:30pm 18.4 16.6 10.8 61 4.2 NW 11 20 6 11 1011.2 1010.0 0.0
21/12:00pm 17.5 15.2 10.6 64 3.8 NW 13 22 7 12 1011.3 1010.2 0.0
21/11:30am 17.6 15.5 11.2 66 3.5 WNW 13 20 7 11 1011.2 1010.0 0.0
21/11:00am 17.0 15.8 9.4 61 4.0 N 6 9 3 5 1011.4 1010.3 0.0
21/10:30am 17.2 16.7 10.6 65 3.6 NE 4 6 2 3 1011.8 1010.7 0.0
21/10:00am 15.5 14.1 9.4 67 3.2 E 7 15 4 8 1012.0 1010.9 0.0
21/09:30am 16.0 14.9 10.1 68 3.2 ENE 6 11 3 6 1012.2 1011.1 0.0
21/09:00am 15.1 13.8 9.9 71 2.8 ENE 7 13 4 7 1012.3 1011.2 0.0
21/08:30am 14.2 12.7 9.2 72 2.6 ENE 7 13 4 7 1012.3 1011.2 0.0
21/08:00am 13.9 13.0 9.1 73 2.5 ESE 4 6 2 3 1012.4 1011.3 0.0
21/07:30am 13.7 13.0 10.1 79 1.9 ESE 4 6 2 3 1012.4 1011.3 0.0
21/07:00am 12.7 12.0 10.1 84 1.4 ESE 4 6 2 3 1012.3 1011.2 0.0
21/06:30am 12.6 11.9 10.0 84 1.4 ESE 4 6 2 3 1012.1 1011.0 0.0
21/06:00am 12.7 11.7 10.2 85 1.3 ESE 6 7 3 4 1011.9 1010.8 0.0
21/05:30am 12.8 11.8 10.3 85 1.3 SSE 6 9 3 5 1011.9 1010.8 0.0
21/05:00am 12.7 11.7 10.2 85 1.3 S 6 6 3 3 1011.9 1010.8 0.0
21/04:30am 12.9 13.0 10.3 84 1.4 CALM 0 2 0 1 1012.2 1011.1 0.0
21/04:00am 12.9 12.2 10.1 83 1.5 S 4 4 2 2 1012.2 1011.1 0.0
21/03:30am 13.0 12.3 10.0 82 1.6 S 4 6 2 3 1012.3 1011.2 0.0
21/03:00am 13.0 11.7 9.8 81 1.7 SSW 7 11 4 6 1012.4 1011.3 0.0
21/02:30am 13.0 11.5 10.4 84 1.4 S 9 13 5 7 1012.4 1011.3 0.0
21/02:00am 13.0 11.5 10.4 84 1.4 SSE 9 13 5 7 1012.5 1011.4 0.0
21/01:30am 13.0 11.4 10.2 83 1.5 SSE 9 13 5 7 1012.7 1011.6 0.0
21/01:00am 13.2 10.9 10.6 84 1.4 S 13 17 7 9 1013.0 1011.9 0.0
21/12:30am 13.1 11.0 11.0 87 1.1 SSE 13 19 7 10 1013.2 1012.1 0.0
21/12:00am 13.3 10.6 10.5 83 1.5 S 15 20 8 11 1013.4 1012.3 0.0
 
Date/Time
CDT
Temp
°C
App
Temp
°C
Dew
Point
°C
Rel
Hum
%
Delta-T
°C
Wind Press
QNH
hPa
Press
MSL
hPa
Rain since
9am
mm
Dir  Spd
km/h
Gust
km/h
Spd
kts
Gust
kts
20/11:30pm 13.3 10.3 10.5 83 1.5 SSE 17 20 9 11 1013.4 1012.3 0.0
20/11:00pm 13.3 9.9 10.7 84 1.4 SSE 19 26 10 14 1013.6 1012.5 0.0
20/10:30pm 13.4 10.1 10.9 85 1.3 S 19 28 10 15 1013.4 1012.3 0.0
20/10:00pm 13.3 8.9 10.5 83 1.5 SSE 24 33 13 18 1013.2 1012.1 0.0
20/09:30pm 13.4 9.1 10.8 84 1.4 S 24 32 13 17 1013.1 1012.0 0.0
20/09:00pm 13.5 8.8 10.7 83 1.5 S 26 35 14 19 1012.9 1011.8 0.0
20/08:30pm 13.7 9.5 11.2 85 1.3 S 24 32 13 17 1012.9 1011.8 0.0
20/08:00pm 13.7 9.2 11.4 86 1.2 S 26 32 14 17 1012.6 1011.5 0.0
20/07:30pm 13.8 10.1 11.5 86 1.2 S 22 30 12 16 1012.7 1011.6 0.0
20/07:00pm 13.9 8.6 11.2 84 1.5 S 30 37 16 20 1012.3 1011.2 0.0
20/06:30pm 14.3 9.1 11.5 83 1.5 S 30 37 16 20 1012.1 1011.0 0.0
20/06:00pm 14.7 9.9 11.8 83 1.6 S 28 39 15 21 1012.1 1011.0 0.0
20/05:30pm 14.9 9.6 12.4 85 1.4 S 32 41 17 22 1012.0 1010.9 0.0
20/05:00pm 14.6 9.5 11.9 84 1.5 S 30 41 16 22 1012.0 1010.9 0.0
20/04:30pm 15.8 10.8 12.2 79 2.0 S 30 43 16 23 1011.9 1010.8 0.0
20/04:00pm 15.6 9.4 11.4 76 2.3 S 35 46 19 25 1011.9 1010.8 0.0
20/03:30pm 15.3 8.7 12.6 84 1.5 S 39 52 21 28 1012.0 1010.9 0.0
20/03:00pm 14.8 8.5 12.3 85 1.4 S 37 44 20 24 1012.2 1011.1 0.0
20/02:30pm 15.1 9.8 13.0 87 1.2 S 33 41 18 22 1012.5 1011.4 0.0
20/02:00pm 14.0 8.5 12.0 88 1.1 S 32 41 17 22 1012.5 1011.4 0.0
20/01:30pm 14.0 9.0 12.2 89 1.0 S 30 41 16 22 1012.5 1011.4 0.0

Latest Capital City Observations: Canberra | Sydney | Melbourne | Brisbane | Adelaide | Perth | Hobart | Darwin

Other formats

Comma delimited format used in spreadsheet applications
http://www.bom.gov.au/fwo/IDS60901/IDS60901.94811.axf

JavaScript Object Notation format (JSON) in row-major order
http://www.bom.gov.au/fwo/IDS60901/IDS60901.94811.json

Data quality

Most of these data are generated automatically and are frequently updated. Quality checks on data are not normally performed. It is possible for incorrect values to appear. Refer to information at About Latest Weather Observations and please check the disclaimer before using these data.